SKSM/SMR METAR and TAF weather

Enter ICAO airport designator
Station Type Date Time Source
SKSM METAR 2019/04/24 22:00 UTC NOAA

SKSM 242200Z 01016KT 9999 FEW020 SCT200 33/23 A2977


Station Type Date Time Source
SKSM Decoded METAR 2019/04/24 22:00 UTC NOAA

Santa Marta / Simon Bolivar, Colombia (SKSM) 11-08N 074-14W 14M
Apr 24, 2019 - 06:00 PM EDT / 2019.04.24 2200 UTC
Wind: from the N (010 degrees) at 18 MPH (16 KT):0
Visibility: greater than 7 mile(s):0
Sky conditions: partly cloudy
Temperature: 91 F (33 C)
Heat index: 99.1 F (37.3 C):1
Dew Point: 73 F (23 C)
Relative Humidity: 55%
Pressure (altimeter): 29.77 in. Hg (1008 hPa)
ob: SKSM 242200Z 01016KT 9999 FEW020 SCT200 33/23 A2977
cycle: 22

Station Type Date Time Source
SKSM TAF UTC NOAA

Error!

Example: see airport list